Time;durP1;ratioP1;P1;durP2;ratioP2;P2;SDS_P1;SDS_P2;PMS_P1;PMS_P2;Temp;Humidity;BMP_temperature;BMP_pressure;BME280_temperature;BME280_humidity;BME280_pressure;Samples;Min_cycle;Max_cycle;Signal;HPM_P1;HPM_P2
2022/09/15 00:00:56;;;;;;;0.65;0.55;;;20.50;99.90;;;;;;5013005;28;20631;-79
2022/09/15 00:03:23;;;;;;;4.63;0.90;;;20.50;99.90;;;;;;5011046;28;20146;-79
2022/09/15 00:05:53;;;;;;;1.60;0.60;;;20.50;99.90;;;;;;5007410;28;20530;-79
2022/09/15 00:08:20;;;;;;;1.27;0.70;;;20.50;99.90;;;;;;5002055;28;20049;-79
2022/09/15 00:10:53;;;;;;;1.58;0.55;;;20.50;99.90;;;;;;5005410;28;20053;-79
2022/09/15 00:13:21;;;;;;;0.65;0.50;;;20.50;99.90;;;;;;5007808;28;20503;-79
2022/09/15 00:15:48;;;;;;;1.83;0.77;;;20.50;99.90;;;;;;5004870;28;20061;-78
2022/09/15 00:18:14;;;;;;;0.82;0.50;;;20.60;99.90;;;;;;4999988;28;20138;-78
2022/09/15 00:20:43;;;;;;;1.80;0.80;;;20.50;99.90;;;;;;5011024;28;20050;-79
2022/09/15 00:23:12;;;;;;;1.73;0.50;;;20.50;99.90;;;;;;4997327;28;20050;-78
2022/09/15 00:25:48;;;;;;;2.38;0.80;;;20.50;99.90;;;;;;5010367;28;20061;-79
2022/09/15 00:28:17;;;;;;;0.70;0.60;;;20.40;99.90;;;;;;5002536;28;20057;-79
2022/09/15 00:30:54;;;;;;;2.15;0.70;;;20.40;99.90;;;;;;5007116;28;20060;-78
2022/09/15 00:33:21;;;;;;;2.22;0.73;;;20.40;99.90;;;;;;4994112;28;20057;-79
2022/09/15 00:35:50;;;;;;;2.95;0.90;;;20.40;99.90;;;;;;4993824;28;20153;-78
2022/09/15 00:38:18;;;;;;;1.63;0.85;;;20.40;99.90;;;;;;4995373;28;20046;-79
2022/09/15 00:40:44;;;;;;;2.10;0.75;;;20.40;99.90;;;;;;4998465;28;20046;-78
2022/09/15 00:43:12;;;;;;;2.92;0.90;;;20.30;99.90;;;;;;5000408;28;20046;-78
2022/09/15 00:45:39;;;;;;;5.93;1.05;;;20.30;99.90;;;;;;5003545;28;20417;-79
2022/09/15 00:48:12;;;;;;;3.28;0.65;;;20.30;99.90;;;;;;5006412;28;20401;-80
2022/09/15 00:50:41;;;;;;;1.38;0.63;;;20.20;99.90;;;;;;5008888;28;20056;-79
2022/09/15 00:53:10;;;;;;;4.18;1.35;;;20.20;99.90;;;;;;4993633;28;20057;-79
2022/09/15 00:55:47;;;;;;;2.95;0.70;;;20.20;99.90;;;;;;5012496;28;20050;-78
2022/09/15 00:58:23;;;;;;;2.90;0.70;;;20.10;99.90;;;;;;5009644;28;20049;-80
2022/09/15 01:01:00;;;;;;;3.55;0.85;;;20.10;99.90;;;;;;4998359;28;20058;-79
2022/09/15 01:03:31;;;;;;;3.20;0.80;;;20.10;99.90;;;;;;5006619;28;20053;-78
2022/09/15 01:06:04;;;;;;;1.95;0.80;;;20.00;99.90;;;;;;5001831;28;20050;-79
2022/09/15 01:08:52;;;;;;;1.10;0.63;;;20.00;99.90;;;;;;4998140;28;20062;-79
2022/09/15 01:11:19;;;;;;;3.70;0.88;;;20.00;99.90;;;;;;4994536;28;20050;-78
2022/09/15 01:13:46;;;;;;;3.40;0.82;;;20.00;99.90;;;;;;4997830;28;20057;-78
2022/09/15 01:16:40;;;;;;;2.53;0.70;;;20.00;99.90;;;;;;4996999;28;20046;-78
2022/09/15 01:19:20;;;;;;;4.63;0.90;;;20.00;99.90;;;;;;5009889;28;20203;-79
2022/09/15 01:21:56;;;;;;;2.83;0.70;;;20.00;99.90;;;;;;5006484;28;20506;-78
2022/09/15 01:24:44;;;;;;;2.22;0.70;;;20.00;99.90;;;;;;5009029;28;20049;-79
2022/09/15 01:27:50;;;;;;;4.82;0.93;;;20.00;99.90;;;;;;5002719;28;20086;-78
2022/09/15 01:30:23;;;;;;;1.08;0.43;;;20.00;99.90;;;;;;4998401;28;20464;-79
2022/09/15 01:33:06;;;;;;;2.40;0.70;;;19.90;99.90;;;;;;5012639;28;20057;-78
2022/09/15 01:35:36;;;;;;;4.50;0.90;;;19.90;99.90;;;;;;5027211;28;20057;-79
2022/09/15 01:38:11;;;;;;;1.15;0.60;;;19.80;99.90;;;;;;5015254;28;20043;-78
2022/09/15 01:40:49;;;;;;;1.52;0.57;;;19.80;99.90;;;;;;5010660;28;20046;-79
2022/09/15 01:43:21;;;;;;;4.63;0.82;;;19.80;99.90;;;;;;5005615;28;20046;-79
2022/09/15 01:45:50;;;;;;;1.75;0.60;;;19.70;99.90;;;;;;5013117;28;20061;-79
2022/09/15 01:48:23;;;;;;;1.65;0.70;;;19.70;99.90;;;;;;5015974;28;20500;-79
2022/09/15 01:50:54;;;;;;;3.17;0.93;;;19.60;99.90;;;;;;5015439;28;20050;-79
2022/09/15 01:53:22;;;;;;;2.65;0.68;;;19.60;99.90;;;;;;5013896;28;20054;-79
2022/09/15 01:55:54;;;;;;;3.28;0.85;;;19.70;99.90;;;;;;5010607;28;20499;-79
2022/09/15 01:58:21;;;;;;;2.28;0.80;;;19.60;99.90;;;;;;5006310;28;20058;-79
2022/09/15 02:01:09;;;;;;;1.30;0.60;;;19.70;99.90;;;;;;5008567;28;20046;-79
2022/09/15 02:03:46;;;;;;;5.85;0.90;;;19.70;99.90;;;;;;5012194;28;20042;-79
2022/09/15 02:06:35;;;;;;;1.63;0.90;;;19.70;99.90;;;;;;4997733;28;20050;-79
2022/09/15 02:09:27;;;;;;;1.35;0.60;;;19.70;99.90;;;;;;4997471;28;20086;-79
2022/09/15 02:12:09;;;;;;;3.17;0.60;;;19.80;99.90;;;;;;5013071;28;20063;-78
2022/09/15 02:14:52;;;;;;;4.03;0.98;;;19.80;99.90;;;;;;5003961;28;20055;-78
2022/09/15 02:17:20;;;;;;;1.30;0.70;;;19.80;99.90;;;;;;5006590;28;20499;-79
2022/09/15 02:19:55;;;;;;;1.77;0.90;;;19.90;99.90;;;;;;5003684;28;20420;-79
2022/09/15 02:22:30;;;;;;;0.40;0.40;;;19.90;99.90;;;;;;5001627;28;20053;-79
2022/09/15 02:25:08;;;;;;;1.40;0.50;;;19.90;99.90;;;;;;4998821;28;20062;-79
2022/09/15 02:27:40;;;;;;;4.05;0.80;;;19.90;99.90;;;;;;5011477;28;20049;-78
2022/09/15 02:30:10;;;;;;;1.35;0.70;;;20.00;99.90;;;;;;5013702;28;20055;-79
2022/09/15 02:32:46;;;;;;;1.02;0.52;;;20.00;99.90;;;;;;5009579;28;20141;-79
2022/09/15 02:35:15;;;;;;;2.25;0.60;;;20.00;99.90;;;;;;5006742;28;20419;-78
2022/09/15 02:37:43;;;;;;;2.20;0.53;;;19.90;99.90;;;;;;5003921;28;20053;-79
2022/09/15 02:40:10;;;;;;;1.55;0.90;;;19.90;99.90;;;;;;5001096;28;20390;-79
2022/09/15 02:42:38;;;;;;;1.77;0.68;;;19.90;99.90;;;;;;4998708;28;20058;-79
2022/09/15 02:45:05;;;;;;;4.82;0.63;;;19.90;99.90;;;;;;5006040;28;20100;-79
2022/09/15 02:47:32;;;;;;;1.75;0.60;;;19.90;99.90;;;;;;4996924;28;20405;-79
2022/09/15 02:49:59;;;;;;;0.63;0.40;;;19.90;99.90;;;;;;4996200;28;20072;-79
2022/09/15 02:52:25;;;;;;;2.15;0.60;;;19.90;99.90;;;;;;5002357;28;20042;-79
2022/09/15 02:54:53;;;;;;;1.50;0.60;;;19.90;99.90;;;;;;5008077;28;20505;-79
2022/09/15 02:57:19;;;;;;;1.85;0.50;;;19.90;99.90;;;;;;5009941;28;20053;-79
2022/09/15 03:02:32;;;;;;;0.50;0.50;;;19.90;99.90;;;;;;5021648;28;20049;-78
2022/09/15 03:04:59;;;;;;;1.13;0.70;;;19.90;99.90;;;;;;5016383;28;20042;-78
2022/09/15 03:07:27;;;;;;;3.42;0.60;;;19.80;99.90;;;;;;5011490;28;20045;-78
2022/09/15 03:09:54;;;;;;;4.13;0.75;;;19.80;99.90;;;;;;5012704;28;20058;-79
2022/09/15 03:12:20;;;;;;;1.23;0.60;;;19.80;99.90;;;;;;5004772;28;20097;-79
2022/09/15 03:14:47;;;;;;;4.30;0.60;;;19.80;99.90;;;;;;5001982;28;20056;-79
2022/09/15 03:17:14;;;;;;;1.85;0.52;;;19.80;99.90;;;;;;4999141;28;20062;-78
2022/09/15 03:19:41;;;;;;;3.00;0.60;;;19.80;99.90;;;;;;4996698;28;20058;-79
2022/09/15 03:22:09;;;;;;;1.00;0.50;;;19.80;99.90;;;;;;5011442;28;20058;-79
2022/09/15 03:24:36;;;;;;;1.83;0.60;;;19.80;99.90;;;;;;5010909;28;20049;-79
2022/09/15 03:27:04;;;;;;;1.35;0.60;;;19.80;99.90;;;;;;5008872;28;20132;-77
2022/09/15 03:29:31;;;;;;;0.82;0.60;;;19.80;99.90;;;;;;5005709;28;20060;-78
2022/09/15 03:31:57;;;;;;;1.23;0.52;;;19.80;99.90;;;;;;5003117;28;20062;-79
2022/09/15 03:34:24;;;;;;;3.78;0.70;;;19.90;99.90;;;;;;5001302;28;20571;-78
2022/09/15 03:36:51;;;;;;;1.90;1.02;;;19.90;99.90;;;;;;5002104;28;20066;-78
2022/09/15 03:39:17;;;;;;;2.03;0.60;;;19.80;99.90;;;;;;5002250;28;20416;-78
2022/09/15 03:41:44;;;;;;;1.20;0.50;;;19.80;99.90;;;;;;5011199;28;20049;-78
2022/09/15 03:44:11;;;;;;;4.90;0.98;;;19.80;99.90;;;;;;4994281;28;20125;-78
2022/09/15 03:46:37;;;;;;;1.45;0.50;;;19.80;99.90;;;;;;4995627;28;20062;-79
2022/09/15 03:49:04;;;;;;;1.02;0.75;;;19.80;99.90;;;;;;5003062;28;20054;-79
2022/09/15 03:51:31;;;;;;;1.42;0.73;;;19.80;99.90;;;;;;5001281;28;20054;-78
2022/09/15 03:53:58;;;;;;;2.38;0.90;;;19.80;99.90;;;;;;4999131;28;20061;-78
2022/09/15 03:56:30;;;;;;;1.30;0.65;;;19.80;99.90;;;;;;4995758;28;20545;-78
2022/09/15 03:58:58;;;;;;;2.85;0.80;;;19.80;99.90;;;;;;5012228;28;20393;-78
2022/09/15 04:01:25;;;;;;;2.55;0.57;;;19.70;99.90;;;;;;5010364;28;20053;-79
2022/09/15 04:03:51;;;;;;;1.85;0.70;;;19.70;99.90;;;;;;5008297;28;20042;-79
2022/09/15 04:06:20;;;;;;;2.15;0.70;;;19.80;99.90;;;;;;5004232;28;20495;-78
2022/09/15 04:08:48;;;;;;;3.55;0.68;;;19.70;99.90;;;;;;5001486;28;20056;-79
2022/09/15 04:11:16;;;;;;;2.45;0.75;;;19.60;99.90;;;;;;4994780;28;20046;-79
2022/09/15 04:13:44;;;;;;;1.40;0.47;;;19.60;99.90;;;;;;4994675;28;20076;-78
2022/09/15 04:16:15;;;;;;;1.63;0.80;;;19.60;99.90;;;;;;5009275;28;20104;-78
2022/09/15 04:18:42;;;;;;;3.60;0.63;;;19.60;99.90;;;;;;5012109;28;20052;-78
2022/09/15 04:21:12;;;;;;;4.05;0.70;;;19.60;99.90;;;;;;5008013;28;20432;-79
2022/09/15 04:23:40;;;;;;;1.25;0.52;;;19.60;99.90;;;;;;5001254;28;20061;-79
2022/09/15 04:26:22;;;;;;;3.47;0.60;;;19.50;99.90;;;;;;5011317;28;20415;-79
2022/09/15 04:28:49;;;;;;;2.33;0.60;;;19.50;99.90;;;;;;5007432;28;20045;-79
2022/09/15 04:31:16;;;;;;;1.67;0.52;;;19.40;99.90;;;;;;5010851;28;20057;-79
2022/09/15 04:33:44;;;;;;;2.47;0.98;;;19.40;99.90;;;;;;5013101;28;20132;-79
2022/09/15 04:36:14;;;;;;;3.42;0.95;;;19.40;99.90;;;;;;4993656;28;20050;-79
2022/09/15 04:38:41;;;;;;;1.35;0.70;;;19.40;99.90;;;;;;4997367;28;20049;-79
2022/09/15 04:41:09;;;;;;;1.85;0.60;;;19.40;99.90;;;;;;4994776;28;20518;-78
2022/09/15 04:43:36;;;;;;;2.50;0.50;;;19.40;99.90;;;;;;5001160;28;20098;-79
2022/09/15 04:46:03;;;;;;;4.47;0.65;;;19.30;99.90;;;;;;4997279;28;20045;-78
2022/09/15 04:48:30;;;;;;;2.05;0.77;;;19.30;99.90;;;;;;5008280;28;20050;-79
2022/09/15 04:51:05;;;;;;;1.65;0.75;;;19.30;99.90;;;;;;5011405;28;20057;-78
2022/09/15 04:53:33;;;;;;;0.90;0.60;;;19.30;99.90;;;;;;5012596;28;20471;-78
2022/09/15 04:56:05;;;;;;;0.90;0.57;;;19.40;99.90;;;;;;5009643;28;20054;-79
2022/09/15 04:58:40;;;;;;;1.85;0.60;;;19.30;99.90;;;;;;5000593;28;20053;-79
2022/09/15 05:01:09;;;;;;;1.30;0.60;;;19.30;99.90;;;;;;4994025;28;20104;-79
2022/09/15 05:03:37;;;;;;;3.75;0.70;;;19.30;99.90;;;;;;5004738;28;20126;-79
2022/09/15 05:06:06;;;;;;;3.67;0.88;;;19.30;99.90;;;;;;4998100;28;20061;-79
2022/09/15 05:08:33;;;;;;;1.50;0.70;;;19.30;99.90;;;;;;4996490;28;20050;-78
2022/09/15 05:11:01;;;;;;;1.70;0.60;;;19.30;99.90;;;;;;5005550;28;20142;-79
2022/09/15 05:13:28;;;;;;;1.95;0.55;;;19.30;99.90;;;;;;5010614;28;20424;-79
2022/09/15 05:15:55;;;;;;;2.75;0.47;;;19.30;99.90;;;;;;5008028;28;20045;-79
2022/09/15 05:18:22;;;;;;;3.90;0.80;;;19.30;99.90;;;;;;5003768;28;20042;-79
2022/09/15 05:20:49;;;;;;;1.65;0.60;;;19.30;99.90;;;;;;5003937;28;20057;-78
2022/09/15 05:23:15;;;;;;;1.02;0.68;;;19.30;99.90;;;;;;5007964;28;20046;-78
2022/09/15 05:25:42;;;;;;;1.25;0.47;;;19.30;99.90;;;;;;4996503;28;20050;-78
2022/09/15 05:28:09;;;;;;;2.70;0.60;;;19.30;99.90;;;;;;4998792;28;20050;-79
2022/09/15 05:30:38;;;;;;;1.60;0.75;;;19.30;99.90;;;;;;5012347;28;20057;-78
2022/09/15 05:33:09;;;;;;;1.98;1.02;;;19.30;99.90;;;;;;5008451;28;20054;-79
2022/09/15 05:35:36;;;;;;;5.15;0.85;;;19.30;99.90;;;;;;4994618;28;20058;-78
2022/09/15 05:38:03;;;;;;;3.92;0.60;;;19.30;99.90;;;;;;4994042;28;20061;-79
2022/09/15 05:40:31;;;;;;;2.50;0.68;;;19.30;99.90;;;;;;4998920;28;20072;-78
2022/09/15 05:42:58;;;;;;;2.30;0.82;;;19.30;99.90;;;;;;4998771;28;20051;-79
2022/09/15 05:45:25;;;;;;;2.47;0.82;;;19.30;99.90;;;;;;4994380;28;20512;-79
2022/09/15 05:47:51;;;;;;;2.20;0.68;;;19.30;99.90;;;;;;5007012;28;20053;-79
2022/09/15 05:50:18;;;;;;;2.17;0.80;;;19.30;99.90;;;;;;5008696;28;20050;-79
2022/09/15 05:52:50;;;;;;;1.73;0.70;;;19.30;99.90;;;;;;5008655;28;20065;-79
2022/09/15 05:55:16;;;;;;;0.88;0.70;;;19.30;99.90;;;;;;5006589;28;20054;-79
2022/09/15 05:57:43;;;;;;;0.75;0.60;;;19.30;99.90;;;;;;5002701;28;20128;-79
2022/09/15 06:00:11;;;;;;;1.98;0.77;;;19.30;99.90;;;;;;5000137;28;20050;-78
2022/09/15 06:02:37;;;;;;;5.57;0.82;;;19.30;99.90;;;;;;5009733;28;20042;-79
2022/09/15 06:05:04;;;;;;;1.88;0.70;;;19.30;99.90;;;;;;5001387;28;20061;-79
2022/09/15 06:07:31;;;;;;;3.03;0.70;;;19.30;99.90;;;;;;5014871;28;20124;-79
2022/09/15 06:09:58;;;;;;;3.90;1.42;;;19.40;99.90;;;;;;5009701;28;20124;-79
2022/09/15 06:12:26;;;;;;;2.28;0.77;;;19.40;99.90;;;;;;5014508;28;20054;-80
2022/09/15 06:14:52;;;;;;;0.75;0.60;;;19.40;99.90;;;;;;5006816;28;20050;-79
2022/09/15 06:17:21;;;;;;;3.28;0.73;;;19.40;99.90;;;;;;5005550;28;20048;-80
2022/09/15 06:19:48;;;;;;;2.92;1.23;;;19.40;99.90;;;;;;5003590;28;20050;-78
2022/09/15 06:22:15;;;;;;;1.70;1.08;;;19.40;99.90;;;;;;5008845;28;20051;-78
2022/09/15 06:24:41;;;;;;;2.13;0.80;;;19.40;99.90;;;;;;5023963;28;20416;-78
2022/09/15 06:27:08;;;;;;;1.17;0.70;;;19.40;99.90;;;;;;5014858;28;20423;-79
2022/09/15 06:29:35;;;;;;;4.28;0.70;;;19.40;99.90;;;;;;5014908;28;20069;-78
2022/09/15 06:32:03;;;;;;;1.98;0.70;;;19.40;99.90;;;;;;5013783;28;20420;-80
2022/09/15 06:34:31;;;;;;;2.53;0.70;;;19.40;99.90;;;;;;5004857;28;20621;-78
2022/09/15 06:36:58;;;;;;;3.58;0.80;;;19.40;99.90;;;;;;5001691;28;20042;-79
2022/09/15 06:39:25;;;;;;;2.47;0.60;;;19.40;99.90;;;;;;4998854;28;20057;-79
2022/09/15 06:41:52;;;;;;;1.58;0.93;;;19.50;99.90;;;;;;5004109;28;20077;-79
2022/09/15 06:44:28;;;;;;;2.13;0.93;;;19.40;99.90;;;;;;4999176;28;20058;-79
2022/09/15 06:46:55;;;;;;;1.55;0.88;;;19.40;99.90;;;;;;5002125;28;20058;-79
2022/09/15 06:49:22;;;;;;;1.90;0.70;;;19.40;99.90;;;;;;5003121;28;20053;-79
2022/09/15 06:51:48;;;;;;;4.82;0.70;;;19.40;99.90;;;;;;5006988;28;20115;-79
2022/09/15 06:54:15;;;;;;;2.95;0.80;;;19.40;99.90;;;;;;4997269;28;20058;-79
2022/09/15 06:56:42;;;;;;;3.45;1.00;;;19.30;99.90;;;;;;4997044;28;20054;-79
2022/09/15 06:59:14;;;;;;;4.38;1.27;;;19.30;99.90;;;;;;5010498;28;20508;-77
2022/09/15 07:01:41;;;;;;;1.15;0.90;;;19.30;99.90;;;;;;5004033;28;20069;-77
2022/09/15 07:04:08;;;;;;;3.00;0.98;;;19.30;99.90;;;;;;5005811;28;20046;-77
2022/09/15 07:06:37;;;;;;;3.85;1.00;;;19.30;99.90;;;;;;5005105;28;20050;-77
2022/09/15 07:09:05;;;;;;;2.28;0.85;;;19.30;99.90;;;;;;5006101;28;20046;-77
2022/09/15 07:11:32;;;;;;;5.13;1.02;;;19.30;99.90;;;;;;5006150;28;20056;-78
2022/09/15 07:13:59;;;;;;;1.63;1.00;;;19.30;99.90;;;;;;5007893;28;20515;-77
2022/09/15 07:16:25;;;;;;;1.42;1.00;;;19.30;99.90;;;;;;4999989;28;20057;-77
2022/09/15 07:19:00;;;;;;;2.25;0.70;;;19.40;99.90;;;;;;5002396;28;20471;-78
2022/09/15 07:21:27;;;;;;;2.63;0.80;;;19.30;99.90;;;;;;5012959;28;20057;-78
2022/09/15 07:23:56;;;;;;;3.10;1.00;;;19.40;99.90;;;;;;5001083;28;20049;-78
2022/09/15 07:26:26;;;;;;;2.50;0.80;;;19.30;99.90;;;;;;5003772;28;20541;-77
2022/09/15 07:28:55;;;;;;;3.25;1.17;;;19.30;99.90;;;;;;5005448;28;20495;-78
2022/09/15 07:31:24;;;;;;;2.88;1.17;;;19.40;99.90;;;;;;5006088;28;20054;-77
2022/09/15 07:33:51;;;;;;;5.38;1.42;;;19.50;99.90;;;;;;4999225;28;20078;-78
2022/09/15 07:36:18;;;;;;;2.17;1.27;;;19.50;99.90;;;;;;5000228;28;20053;-78
2022/09/15 07:38:47;;;;;;;7.03;1.20;;;19.50;99.90;;;;;;5012007;28;20674;-78
2022/09/15 07:41:17;;;;;;;2.38;1.08;;;19.50;99.90;;;;;;5012753;28;20068;-78
2022/09/15 07:43:46;;;;;;;1.67;1.20;;;19.50;99.90;;;;;;5012207;28;20492;-78
2022/09/15 07:46:13;;;;;;;1.23;1.00;;;19.60;99.90;;;;;;5001788;28;20052;-78
2022/09/15 07:48:43;;;;;;;3.13;1.20;;;19.60;99.90;;;;;;5007378;28;20492;-78
2022/09/15 07:51:11;;;;;;;2.78;0.88;;;19.70;99.90;;;;;;5004619;28;20045;-78
2022/09/15 07:53:38;;;;;;;2.25;1.10;;;19.80;99.90;;;;;;4998090;28;20054;-77
2022/09/15 07:56:06;;;;;;;3.88;1.05;;;19.80;99.90;;;;;;5005522;28;20136;-78
2022/09/15 07:58:33;;;;;;;3.58;0.90;;;19.90;99.90;;;;;;4994306;28;20061;-78
2022/09/15 08:01:06;;;;;;;3.58;1.20;;;20.00;99.90;;;;;;4997653;28;20601;-78
2022/09/15 08:03:33;;;;;;;1.80;0.80;;;20.00;99.90;;;;;;5004053;28;20053;-77
2022/09/15 08:06:00;;;;;;;5.32;1.10;;;20.10;99.90;;;;;;5004296;28;20073;-78
2022/09/15 08:08:28;;;;;;;2.53;1.10;;;20.10;99.90;;;;;;5001765;28;20499;-77
2022/09/15 08:10:54;;;;;;;5.97;1.85;;;20.00;99.90;;;;;;5002027;28;20062;-78
2022/09/15 08:13:21;;;;;;;3.08;1.15;;;20.00;99.90;;;;;;4997480;28;20050;-78
2022/09/15 08:15:49;;;;;;;1.95;1.05;;;20.10;99.90;;;;;;5002117;28;20077;-77
2022/09/15 08:18:16;;;;;;;2.33;1.08;;;20.00;99.90;;;;;;5009245;28;20084;-78
2022/09/15 08:20:43;;;;;;;2.55;1.25;;;20.00;99.90;;;;;;5007765;28;20038;-78
2022/09/15 08:23:10;;;;;;;1.70;0.90;;;20.00;99.90;;;;;;5005633;28;20050;-77
2022/09/15 08:25:38;;;;;;;2.20;0.95;;;19.90;99.90;;;;;;5004026;28;20045;-77
2022/09/15 08:28:05;;;;;;;1.92;0.90;;;19.90;99.90;;;;;;5002679;28;20049;-77
2022/09/15 08:30:31;;;;;;;1.92;1.02;;;19.90;99.90;;;;;;5010165;28;20046;-77
2022/09/15 08:32:58;;;;;;;2.55;0.90;;;19.90;99.90;;;;;;5002274;28;20049;-78
2022/09/15 08:35:25;;;;;;;3.42;1.00;;;19.90;99.90;;;;;;5007084;28;20072;-77
2022/09/15 08:37:53;;;;;;;4.80;1.30;;;19.90;99.90;;;;;;5005979;28;20062;-77
2022/09/15 08:40:24;;;;;;;2.28;1.10;;;19.90;99.90;;;;;;5004994;28;20048;-78
2022/09/15 08:42:54;;;;;;;3.28;1.13;;;19.90;99.90;;;;;;5003349;28;20077;-78
2022/09/15 08:45:28;;;;;;;1.85;1.00;;;19.90;99.90;;;;;;5004670;28;20076;-77
2022/09/15 08:48:02;;;;;;;2.85;1.10;;;19.90;99.90;;;;;;5011043;28;20046;-77
2022/09/15 08:50:37;;;;;;;2.30;1.10;;;19.90;99.90;;;;;;5000638;28;20070;-78
2022/09/15 08:53:11;;;;;;;2.60;1.10;;;20.00;99.90;;;;;;5005350;28;20459;-78
2022/09/15 08:55:49;;;;;;;2.42;1.00;;;20.00;99.90;;;;;;5002985;28;20530;-78
2022/09/15 08:58:19;;;;;;;2.42;1.10;;;20.10;99.90;;;;;;5004838;28;20050;-78
2022/09/15 09:00:50;;;;;;;2.88;1.08;;;20.20;99.90;;;;;;5007968;28;20054;-78
2022/09/15 09:03:39;;;;;;;3.60;1.05;;;20.30;99.90;;;;;;5008253;28;20452;-77
2022/09/15 09:06:31;;;;;;;2.00;1.10;;;20.40;99.90;;;;;;5007493;28;20058;-77
2022/09/15 09:09:18;;;;;;;2.97;0.90;;;20.50;99.90;;;;;;5002525;28;20050;-78
2022/09/15 09:12:16;;;;;;;3.22;1.00;;;20.70;99.90;;;;;;5003604;28;20140;-77
2022/09/15 09:15:10;;;;;;;2.17;0.63;;;20.70;99.90;;;;;;5010559;28;20043;-80
2022/09/15 09:17:58;;;;;;;6.10;0.82;;;20.80;99.90;;;;;;5006286;28;20042;-78
2022/09/15 09:20:34;;;;;;;4.18;1.05;;;20.80;99.90;;;;;;5007835;28;20042;-77
2022/09/15 09:23:04;;;;;;;0.82;0.80;;;20.90;99.90;;;;;;5007446;28;20105;-76
2022/09/15 09:25:31;;;;;;;4.03;1.00;;;20.90;99.90;;;;;;5001712;28;20046;-76
2022/09/15 09:27:58;;;;;;;2.67;0.82;;;21.00;99.90;;;;;;5007130;28;20057;-78
2022/09/15 09:30:27;;;;;;;3.05;1.00;;;21.00;99.90;;;;;;5002430;28;20054;-78
2022/09/15 09:33:24;;;;;;;3.42;1.08;;;21.00;99.90;;;;;;5004095;28;20049;-78
2022/09/15 09:35:52;;;;;;;1.85;1.00;;;21.10;99.90;;;;;;5003688;28;20407;-79
2022/09/15 09:38:29;;;;;;;4.65;0.77;;;21.20;99.90;;;;;;5004971;28;20060;-78
2022/09/15 09:40:56;;;;;;;1.13;0.68;;;21.20;99.90;;;;;;5017909;28;20053;-77
2022/09/15 09:43:29;;;;;;;2.15;1.10;;;21.20;99.90;;;;;;5014283;28;20049;-77
2022/09/15 09:45:56;;;;;;;4.57;0.90;;;21.20;99.90;;;;;;5008933;28;20096;-78
2022/09/15 09:48:25;;;;;;;2.20;1.00;;;21.20;99.90;;;;;;5003213;28;20069;-78
2022/09/15 09:50:53;;;;;;;3.67;0.95;;;21.20;99.90;;;;;;5004982;28;20052;-78
2022/09/15 09:53:31;;;;;;;2.42;0.70;;;21.20;99.90;;;;;;5007249;28;20269;-77
2022/09/15 09:56:26;;;;;;;1.80;1.13;;;21.20;99.90;;;;;;5006462;28;20053;-78
2022/09/15 09:58:53;;;;;;;1.40;0.82;;;21.20;99.90;;;;;;5009363;28;20575;-78
2022/09/15 10:01:22;;;;;;;1.65;0.77;;;21.10;99.90;;;;;;5007225;28;20053;-78
2022/09/15 10:04:08;;;;;;;1.60;0.88;;;21.20;99.90;;;;;;5006398;28;20042;-77
2022/09/15 10:06:35;;;;;;;1.65;0.60;;;21.30;99.90;;;;;;5006417;28;20398;-78
2022/09/15 10:09:12;;;;;;;3.22;0.90;;;21.50;99.90;;;;;;5005951;28;20054;-78
2022/09/15 10:11:41;;;;;;;2.00;0.90;;;21.60;99.90;;;;;;5013238;28;20535;-78
2022/09/15 10:14:16;;;;;;;2.72;0.98;;;21.80;99.90;;;;;;5010168;28;20058;-78
2022/09/15 10:16:43;;;;;;;2.75;0.70;;;22.00;99.90;;;;;;5008181;28;20389;-78
2022/09/15 10:19:14;;;;;;;1.50;0.90;;;22.10;99.90;;;;;;5004564;28;20046;-78
2022/09/15 10:21:41;;;;;;;2.38;0.80;;;22.30;99.90;;;;;;5003118;28;20528;-78
2022/09/15 10:24:26;;;;;;;3.00;0.98;;;22.40;99.90;;;;;;5007697;28;20123;-78
2022/09/15 10:27:06;;;;;;;0.90;0.55;;;22.50;99.90;;;;;;5012582;28;20042;-78
2022/09/15 10:29:40;;;;;;;;;;;22.60;99.90;;;;;;5007691;28;20050;-79
2022/09/15 10:32:25;;;;;;;1.70;0.80;;;22.60;99.90;;;;;;5010063;28;19926;-78
2022/09/15 10:35:02;;;;;;;1.63;0.77;;;22.70;99.90;;;;;;5007756;28;20054;-78
2022/09/15 10:37:53;;;;;;;2.28;0.70;;;22.70;99.90;;;;;;5008765;28;20046;-79
2022/09/15 10:40:39;;;;;;;0.70;0.60;;;22.70;99.90;;;;;;4999722;28;20634;-78
2022/09/15 10:43:11;;;;;;;1.20;0.55;;;22.60;99.90;;;;;;5006894;28;20050;-79
2022/09/15 10:45:42;;;;;;;1.52;0.70;;;22.50;99.90;;;;;;5006989;28;20049;-78
2022/09/15 10:48:31;;;;;;;3.55;0.63;;;22.40;99.90;;;;;;5007669;28;20045;-81
2022/09/15 10:51:33;;;;;;;0.40;0.40;;;22.20;99.90;;;;;;5009213;28;20454;-80
2022/09/15 10:54:02;;;;;;;1.10;0.70;;;22.00;99.90;;;;;;5004634;28;20137;-78
2022/09/15 10:56:39;;;;;;;1.40;0.60;;;21.90;99.90;;;;;;5017164;28;20052;-82
2022/09/15 10:59:32;;;;;;;1.20;0.60;;;21.60;99.90;;;;;;5013700;28;20484;-80
2022/09/15 11:02:18;;;;;;;0.90;0.50;;;21.60;99.90;;;;;;5020499;28;20055;-78
2022/09/15 11:05:09;;;;;;;2.20;0.52;;;21.60;99.90;;;;;;5007979;28;20056;-78
2022/09/15 11:07:53;;;;;;;1.10;0.80;;;21.50;99.90;;;;;;4988646;28;20052;-78
2022/09/15 11:11:01;;;;;;;1.05;0.47;;;21.60;99.90;;;;;;5006936;28;20041;-78
2022/09/15 11:13:39;;;;;;;1.27;0.70;;;21.60;99.90;;;;;;5001617;28;20053;-78
2022/09/15 11:16:30;;;;;;;1.08;0.60;;;21.60;99.90;;;;;;5001780;28;20049;-79
2022/09/15 11:19:42;;;;;;;1.10;0.70;;;21.70;99.90;;;;;;5011339;28;20041;-78
2022/09/15 11:22:31;;;;;;;1.80;0.75;;;21.70;99.90;;;;;;4993351;28;20053;-79
2022/09/15 11:25:05;;;;;;;2.15;0.70;;;21.70;99.90;;;;;;5004468;28;20088;-78
2022/09/15 11:27:39;;;;;;;1.80;0.70;;;21.70;99.90;;;;;;5005245;28;20046;-79
2022/09/15 11:30:17;;;;;;;0.80;0.65;;;21.80;99.90;;;;;;5007796;28;20062;-78
2022/09/15 11:32:47;;;;;;;0.98;0.63;;;21.70;99.90;;;;;;5003589;28;20046;-78
2022/09/15 11:35:32;;;;;;;1.80;0.63;;;21.70;99.90;;;;;;4998611;28;20038;-78
2022/09/15 11:38:12;;;;;;;1.25;0.70;;;21.60;99.90;;;;;;5004100;28;20046;-79
2022/09/15 11:40:51;;;;;;;1.48;0.85;;;21.50;99.90;;;;;;5005199;28;20105;-78
2022/09/15 11:43:29;;;;;;;0.93;0.68;;;21.50;99.90;;;;;;5020246;28;20056;-78
2022/09/15 11:45:58;;;;;;;2.28;0.75;;;21.40;99.90;;;;;;5009030;28;20057;-78
2022/09/15 11:48:38;;;;;;;4.28;0.70;;;21.40;99.90;;;;;;5006458;28;20053;-78
2022/09/15 11:51:06;;;;;;;1.10;0.70;;;21.30;99.90;;;;;;5006474;28;20506;-78
2022/09/15 11:53:42;;;;;;;1.38;0.85;;;21.30;99.90;;;;;;5001106;28;20042;-78
2022/09/15 11:56:17;;;;;;;3.72;0.88;;;21.20;99.90;;;;;;5010261;28;20053;-79
2022/09/15 11:59:05;;;;;;;2.08;0.85;;;21.20;99.90;;;;;;5001941;28;20045;-78
2022/09/15 12:01:43;;;;;;;1.20;1.10;;;21.20;99.90;;;;;;5004720;28;20085;-78
2022/09/15 12:04:19;;;;;;;2.00;1.15;;;21.20;99.90;;;;;;5005321;28;20046;-78
2022/09/15 12:07:04;;;;;;;0.98;0.68;;;21.20;99.90;;;;;;5000850;28;20053;-78
2022/09/15 12:09:38;;;;;;;1.75;1.20;;;21.20;99.90;;;;;;5001946;28;20050;-78
2022/09/15 12:12:13;;;;;;;1.85;1.05;;;21.20;99.90;;;;;;4986188;28;20054;-78
2022/09/15 12:14:42;;;;;;;1.30;0.90;;;21.20;99.90;;;;;;5011792;28;20052;-78
2022/09/15 12:17:28;;;;;;;4.72;1.17;;;21.30;99.90;;;;;;5006433;28;20058;-78
2022/09/15 12:20:09;;;;;;;3.15;1.20;;;21.30;99.90;;;;;;5006064;28;20050;-78
2022/09/15 12:22:45;;;;;;;1.30;1.10;;;21.40;99.90;;;;;;4988247;28;20058;-78
2022/09/15 12:25:18;;;;;;;0.80;0.70;;;21.50;99.90;;;;;;5002562;28;20049;-77
2022/09/15 12:28:22;;;;;;;0.88;0.68;;;21.60;99.90;;;;;;4999839;28;20046;-78
2022/09/15 12:31:11;;;;;;;1.58;0.68;;;21.70;99.90;;;;;;5000949;28;20077;-78
2022/09/15 12:33:53;;;;;;;1.85;0.90;;;21.70;99.90;;;;;;5001165;28;20072;-80
2022/09/15 12:36:33;;;;;;;1.55;0.90;;;21.70;99.90;;;;;;5007202;28;20104;-78
2022/09/15 12:39:01;;;;;;;;;;;21.70;99.90;;;;;;5006057;28;20531;-78
2022/09/15 12:41:29;;;;;;;2.05;1.25;;;21.70;99.90;;;;;;5003108;28;19927;-78
2022/09/15 12:44:05;;;;;;;8.38;1.88;;;21.60;99.90;;;;;;5004954;28;20049;-78
2022/09/15 12:46:32;;;;;;;1.95;1.00;;;21.50;99.90;;;;;;4999325;28;20050;-78
2022/09/15 12:49:02;;;;;;;1.73;1.00;;;21.40;99.90;;;;;;5004931;28;20049;-78
2022/09/15 12:51:29;;;;;;;1.50;1.10;;;21.40;99.90;;;;;;5009759;28;20069;-78
2022/09/15 12:54:03;;;;;;;3.25;1.27;;;21.40;99.90;;;;;;5020012;28;20077;-79
2022/09/15 12:56:31;;;;;;;2.03;1.17;;;21.40;99.90;;;;;;5003262;28;20069;-79
2022/09/15 12:59:10;;;;;;;4.55;1.50;;;21.30;99.90;;;;;;5009375;28;20053;-79
2022/09/15 13:01:47;;;;;;;6.65;1.70;;;21.30;99.90;;;;;;5006921;28;20041;-78
2022/09/15 13:04:43;;;;;;;3.92;1.95;;;21.10;99.90;;;;;;5008813;28;20046;-78
2022/09/15 13:07:18;;;;;;;4.45;2.40;;;21.00;99.90;;;;;;5005564;28;20496;-78
2022/09/15 13:10:15;;;;;;;6.97;3.78;;;20.70;99.90;;;;;;5004435;28;20060;-78
2022/09/15 13:12:52;;;;;;;7.15;3.72;;;20.70;99.90;;;;;;5003827;28;20130;-78
2022/09/15 13:15:20;;;;;;;5.40;3.65;;;20.60;99.90;;;;;;5006374;28;20050;-79
2022/09/15 13:17:47;;;;;;;4.65;1.42;;;20.50;99.90;;;;;;5012427;28;20499;-79